createdAt,value
2022-12-11T00:00:19.968Z,49.50
2022-12-11T00:03:09.203Z,49.60
2022-12-11T00:05:52.976Z,49.70
2022-12-11T00:08:39.898Z,49.80
2022-12-11T00:11:29.920Z,49.70
2022-12-11T00:14:17.038Z,49.70
2022-12-11T00:16:56.971Z,49.80
2022-12-11T00:19:44.013Z,49.90
2022-12-11T00:22:23.929Z,49.90
2022-12-11T00:25:04.850Z,49.90
2022-12-11T00:27:51.904Z,49.90
2022-12-11T00:30:38.970Z,49.90
2022-12-11T00:33:32.912Z,50.00
2022-12-11T00:36:21.928Z,49.90
2022-12-11T00:39:01.962Z,49.90
2022-12-11T00:41:48.922Z,49.90
2022-12-11T00:44:28.999Z,49.80
2022-12-11T00:47:15.899Z,49.80
2022-12-11T00:49:57.002Z,49.90
2022-12-11T00:52:43.915Z,50.20
2022-12-11T00:55:24.826Z,50.20
2022-12-11T00:58:11.908Z,50.20
2022-12-11T01:00:58.922Z,50.30
2022-12-11T01:03:45.911Z,50.30
2022-12-11T01:06:35.926Z,50.20
2022-12-11T01:09:42.006Z,51.20
2022-12-11T01:12:21.927Z,50.30
2022-12-11T01:15:02.595Z,50.40
2022-12-11T01:17:48.915Z,50.50
2022-12-11T01:20:35.926Z,51.40
2022-12-11T01:23:25.920Z,50.60
2022-12-11T01:26:19.019Z,50.70
2022-12-11T01:28:58.914Z,50.80
2022-12-11T01:31:45.995Z,50.80
2022-12-11T01:34:25.921Z,51.00
2022-12-11T01:37:06.458Z,50.90
2022-12-11T01:39:52.899Z,50.90
2022-12-11T01:42:34.353Z,50.90
2022-12-11T01:45:37.895Z,51.00
2022-12-11T01:48:29.976Z,50.90
2022-12-11T01:51:11.928Z,51.10
2022-12-11T01:54:05.988Z,52.00
2022-12-11T01:56:48.910Z,50.90
2022-12-11T01:59:34.016Z,50.90
2022-12-11T02:02:23.959Z,50.90
2022-12-11T02:05:05.975Z,50.70
2022-12-11T02:07:58.977Z,50.90
2022-12-11T02:10:48.707Z,51.00
2022-12-11T02:13:47.927Z,51.00
2022-12-11T02:17:01.983Z,50.90
2022-12-11T02:20:13.927Z,51.10
2022-12-11T02:23:16.923Z,51.00
2022-12-11T02:26:22.171Z,51.00
2022-12-11T02:29:20.916Z,51.10
2022-12-11T02:32:12.983Z,51.00
2022-12-11T02:35:10.207Z,51.00
2022-12-11T02:37:59.915Z,51.30
2022-12-11T02:40:42.755Z,50.90
2022-12-11T02:43:31.905Z,51.00
2022-12-11T02:46:19.998Z,51.10
2022-12-11T02:49:00.964Z,52.00
2022-12-11T02:51:48.925Z,50.90
2022-12-11T02:54:40.924Z,51.00
2022-12-11T02:57:37.911Z,50.90
2022-12-11T03:00:19.340Z,50.90
2022-12-11T03:03:05.916Z,50.90
2022-12-11T03:05:47.498Z,50.70
2022-12-11T03:08:33.910Z,50.70
2022-12-11T03:11:24.920Z,51.70
2022-12-11T03:14:12.911Z,50.90
2022-12-11T03:17:05.957Z,50.90
2022-12-11T03:20:15.940Z,50.80
2022-12-11T03:23:10.971Z,50.90
2022-12-11T03:26:04.930Z,50.80
2022-12-11T03:28:56.035Z,50.60
2022-12-11T03:31:49.913Z,50.60
2022-12-11T03:34:44.917Z,50.60
2022-12-11T03:37:33.919Z,50.60
2022-12-11T03:40:20.961Z,50.50
2022-12-11T03:43:09.895Z,50.40
2022-12-11T03:45:52.023Z,50.10
2022-12-11T03:48:41.898Z,50.20
2022-12-11T03:51:30.932Z,50.50
2022-12-11T03:54:11.707Z,50.40
2022-12-11T03:56:59.923Z,50.50
2022-12-11T03:59:40.426Z,50.30
2022-12-11T04:02:26.901Z,50.00
2022-12-11T04:05:14.947Z,50.00
2022-12-11T04:07:54.993Z,50.20
2022-12-11T04:10:41.924Z,50.30
2022-12-11T04:13:28.924Z,50.20
2022-12-11T04:16:15.989Z,50.20
2022-12-11T04:19:14.915Z,50.10
2022-12-11T04:22:20.918Z,50.20
2022-12-11T04:25:00.976Z,50.20
2022-12-11T04:27:56.899Z,50.30
2022-12-11T04:30:36.967Z,50.30
2022-12-11T04:33:23.913Z,50.30
2022-12-11T04:36:10.972Z,50.20
2022-12-11T04:38:50.904Z,50.00
2022-12-11T04:41:37.904Z,50.00
2022-12-11T04:44:17.963Z,50.10
2022-12-11T04:47:04.899Z,50.10
2022-12-11T04:49:44.974Z,50.20
2022-12-11T04:52:31.904Z,50.00
2022-12-11T04:55:20.898Z,50.10
2022-12-11T04:58:07.913Z,50.00
2022-12-11T05:00:48.959Z,50.00
2022-12-11T05:03:35.917Z,50.00
2022-12-11T05:06:24.904Z,50.00
2022-12-11T05:09:12.016Z,49.80
2022-12-11T05:11:51.909Z,49.80
2022-12-11T05:14:32.664Z,49.80
2022-12-11T05:17:18.894Z,49.70
2022-12-11T05:20:05.956Z,49.60
2022-12-11T05:22:45.923Z,49.60
2022-12-11T05:25:26.408Z,49.60
2022-12-11T05:28:12.936Z,49.60
2022-12-11T05:31:05.079Z,49.40
2022-12-11T05:33:52.909Z,49.40
2022-12-11T05:36:38.971Z,49.40
2022-12-11T05:39:25.927Z,49.40
2022-12-11T05:42:05.974Z,49.50
2022-12-11T05:44:52.927Z,49.40
2022-12-11T05:47:32.981Z,49.30
2022-12-11T05:50:19.910Z,49.40
2022-12-11T05:52:59.964Z,49.20
2022-12-11T05:55:46.930Z,49.30
2022-12-11T05:58:34.916Z,49.20
2022-12-11T06:01:34.018Z,50.20
2022-12-11T06:04:14.909Z,50.30
2022-12-11T06:07:01.935Z,49.30
2022-12-11T06:09:41.959Z,49.30
2022-12-11T06:12:28.899Z,49.20
2022-12-11T06:15:15.928Z,49.30
2022-12-11T06:18:03.005Z,49.20
2022-12-11T06:20:42.912Z,49.10
2022-12-11T06:23:29.967Z,49.10
2022-12-11T06:26:10.907Z,49.10
2022-12-11T06:28:51.546Z,49.00
2022-12-11T06:31:45.953Z,49.00
2022-12-11T06:34:39.908Z,49.00
2022-12-11T06:37:26.904Z,49.00
2022-12-11T06:40:13.928Z,48.80
2022-12-11T06:43:00.963Z,48.80
2022-12-11T06:45:40.942Z,48.80
2022-12-11T06:48:27.923Z,48.80
2022-12-11T06:51:12.983Z,49.60
2022-12-11T06:54:01.916Z,48.70
2022-12-11T06:56:48.906Z,48.70
2022-12-11T06:59:36.012Z,48.60
2022-12-11T07:02:23.958Z,48.70
2022-12-11T07:05:05.024Z,48.50
2022-12-11T07:07:51.932Z,48.70
2022-12-11T07:10:32.727Z,48.80
2022-12-11T07:13:18.911Z,48.70
2022-12-11T07:16:10.800Z,48.70
2022-12-11T07:18:54.923Z,48.80
2022-12-11T07:21:41.988Z,48.60
2022-12-11T07:24:21.897Z,48.70
2022-12-11T07:27:02.607Z,48.70
2022-12-11T07:29:48.920Z,48.60
2022-12-11T07:32:35.968Z,49.50
2022-12-11T07:35:29.895Z,48.50
2022-12-11T07:38:16.922Z,48.50
2022-12-11T07:40:57.046Z,48.30
2022-12-11T07:43:45.251Z,48.40
2022-12-11T07:46:29.392Z,48.20
2022-12-11T07:49:16.925Z,48.10
2022-12-11T07:51:57.346Z,48.20
2022-12-11T07:54:43.915Z,48.10
2022-12-11T07:57:23.980Z,48.00
2022-12-11T08:00:11.915Z,48.10
2022-12-11T08:02:52.022Z,48.00
2022-12-11T08:05:38.919Z,48.10
2022-12-11T08:08:25.981Z,48.10
2022-12-11T08:11:09.237Z,48.00
2022-12-11T08:13:56.938Z,47.60
2022-12-11T08:16:51.035Z,47.60
2022-12-11T08:19:37.931Z,47.60
2022-12-11T08:22:17.950Z,47.80
2022-12-11T08:25:04.907Z,48.20
2022-12-11T08:27:44.965Z,48.20
2022-12-11T08:30:31.978Z,48.10
2022-12-11T08:33:12.975Z,47.90
2022-12-11T08:36:06.895Z,47.60
2022-12-11T08:38:48.031Z,47.40
2022-12-11T08:41:41.915Z,47.30
2022-12-11T08:44:24.934Z,47.10
2022-12-11T08:47:11.916Z,46.90
2022-12-11T08:49:52.413Z,46.70
2022-12-11T08:52:38.916Z,46.60
2022-12-11T08:55:27.034Z,46.50
2022-12-11T08:58:06.902Z,46.30
2022-12-11T09:00:53.928Z,46.20
2022-12-11T09:03:40.922Z,46.00
2022-12-11T09:06:30.180Z,45.90
2022-12-11T09:09:11.980Z,45.80
2022-12-11T09:11:58.905Z,45.70
2022-12-11T09:14:39.012Z,45.60
2022-12-11T09:17:25.912Z,45.50
2022-12-11T09:20:05.965Z,45.40
2022-12-11T09:22:52.917Z,45.30
2022-12-11T09:25:33.013Z,45.20
2022-12-11T09:28:19.903Z,45.20
2022-12-11T09:31:00.002Z,44.90
2022-12-11T09:33:46.910Z,44.90
2022-12-11T09:36:33.916Z,44.70
2022-12-11T09:39:15.833Z,44.60
2022-12-11T09:42:21.953Z,44.50
2022-12-11T09:45:11.099Z,44.40
2022-12-11T09:47:54.946Z,44.30
2022-12-11T09:50:41.916Z,44.20
2022-12-11T09:53:36.555Z,44.10
2022-12-11T09:56:33.953Z,44.20
2022-12-11T09:59:44.982Z,44.10
2022-12-11T10:03:04.912Z,44.00
2022-12-11T10:06:08.901Z,43.90
2022-12-11T10:09:24.292Z,43.80
2022-12-11T10:12:16.916Z,43.70
2022-12-11T10:15:25.922Z,43.80
2022-12-11T10:18:13.921Z,43.60
2022-12-11T10:21:02.002Z,43.50
2022-12-11T10:23:50.928Z,43.40
2022-12-11T10:26:31.866Z,43.30
2022-12-11T10:29:25.923Z,43.30
2022-12-11T10:32:21.628Z,43.30
2022-12-11T10:35:15.911Z,43.10
2022-12-11T10:38:17.904Z,43.00
2022-12-11T10:41:03.976Z,43.00
2022-12-11T10:43:53.929Z,43.20
2022-12-11T10:46:43.956Z,43.40
2022-12-11T10:49:27.673Z,43.40
2022-12-11T10:52:31.906Z,43.50
2022-12-11T10:55:33.932Z,43.40
2022-12-11T10:58:20.048Z,43.10
2022-12-11T11:01:19.987Z,43.10
2022-12-11T11:04:32.925Z,42.90
2022-12-11T11:07:31.935Z,42.70
2022-12-11T11:10:18.940Z,42.60
2022-12-11T11:13:08.989Z,42.50
2022-12-11T11:15:49.955Z,42.30
2022-12-11T11:18:31.942Z,42.30
2022-12-11T11:21:18.953Z,42.10
2022-12-11T11:24:06.911Z,42.10
2022-12-11T11:27:12.169Z,41.90
2022-12-11T11:29:53.904Z,41.80
2022-12-11T11:32:45.760Z,41.80
2022-12-11T11:35:33.915Z,41.80
2022-12-11T11:38:32.883Z,41.60
2022-12-11T11:41:50.906Z,41.60
2022-12-11T11:44:53.910Z,41.50
2022-12-11T11:47:44.906Z,41.40
2022-12-11T11:50:36.922Z,41.40
2022-12-11T11:53:26.909Z,41.40
2022-12-11T11:56:27.925Z,41.30
2022-12-11T11:59:23.459Z,41.20
2022-12-11T12:02:10.917Z,41.20
2022-12-11T12:04:58.900Z,41.20
2022-12-11T12:07:55.942Z,41.20
2022-12-11T12:10:56.903Z,41.10
2022-12-11T12:13:50.618Z,41.20
2022-12-11T12:17:02.983Z,41.20
2022-12-11T12:20:04.140Z,41.20
2022-12-11T12:23:08.908Z,41.20
2022-12-11T12:26:11.997Z,41.20
2022-12-11T12:29:21.917Z,41.20
2022-12-11T12:32:32.998Z,42.10
2022-12-11T12:35:34.915Z,41.10
2022-12-11T12:38:18.004Z,41.10
2022-12-11T12:41:51.903Z,41.10
2022-12-11T12:44:37.980Z,41.00
2022-12-11T12:47:26.911Z,41.00
2022-12-11T12:50:47.941Z,41.60
2022-12-11T12:53:38.980Z,42.00
2022-12-11T12:56:19.896Z,42.10
2022-12-11T12:59:00.068Z,43.20
2022-12-11T13:01:46.979Z,42.40
2022-12-11T13:04:58.149Z,42.80
2022-12-11T13:07:49.747Z,43.50
2022-12-11T13:10:40.909Z,43.80
2022-12-11T13:13:51.618Z,45.20
2022-12-11T13:16:44.969Z,44.60
2022-12-11T13:19:25.468Z,44.90
2022-12-11T13:22:35.916Z,45.20
2022-12-11T13:25:35.226Z,45.70
2022-12-11T13:28:34.913Z,45.90
2022-12-11T13:31:22.893Z,47.20
2022-12-11T13:34:04.906Z,46.40
2022-12-11T13:37:06.932Z,46.50
2022-12-11T13:39:53.919Z,46.80
2022-12-11T13:42:41.967Z,47.00
2022-12-11T13:45:29.987Z,47.10
2022-12-11T13:48:16.713Z,47.30
2022-12-11T13:51:05.939Z,47.50
2022-12-11T13:53:52.900Z,47.60
2022-12-11T13:56:34.242Z,47.80
2022-12-11T13:59:32.906Z,47.90
2022-12-11T14:02:46.923Z,48.10
2022-12-11T14:05:27.965Z,48.60
2022-12-11T14:08:17.951Z,48.60
2022-12-11T14:11:06.929Z,48.60
2022-12-11T14:13:47.746Z,48.60
2022-12-11T14:16:37.066Z,48.70
2022-12-11T14:19:25.922Z,48.70
2022-12-11T14:22:18.930Z,48.70
2022-12-11T14:25:14.600Z,48.70
2022-12-11T14:28:01.956Z,48.70
2022-12-11T14:30:55.923Z,48.80
2022-12-11T14:33:48.916Z,48.70
2022-12-11T14:36:38.431Z,48.70
2022-12-11T14:39:22.901Z,48.80
2022-12-11T14:42:05.343Z,48.90
2022-12-11T14:45:04.899Z,48.90
2022-12-11T14:47:51.985Z,48.90
2022-12-11T14:50:53.918Z,48.90
2022-12-11T14:53:49.995Z,48.90
2022-12-11T14:56:33.923Z,48.90
2022-12-11T14:59:32.298Z,48.90
2022-12-11T15:02:37.989Z,49.00
2022-12-11T15:05:26.931Z,49.00
2022-12-11T15:08:28.067Z,49.00
2022-12-11T15:11:17.923Z,49.00
2022-12-11T15:14:02.972Z,49.10
2022-12-11T15:16:49.943Z,49.10
2022-12-11T15:19:38.064Z,49.10
2022-12-11T15:22:29.919Z,49.20
2022-12-11T15:25:09.959Z,49.10
2022-12-11T15:27:59.928Z,49.20
2022-12-11T15:30:41.088Z,49.20
2022-12-11T15:33:34.054Z,49.20
2022-12-11T15:36:32.051Z,49.20
2022-12-11T15:39:14.908Z,49.10
2022-12-11T15:42:01.939Z,49.20
2022-12-11T15:44:41.984Z,49.20
2022-12-11T15:47:31.915Z,49.20
2022-12-11T15:50:23.006Z,49.30
2022-12-11T15:53:09.922Z,49.30
2022-12-11T15:55:56.944Z,49.30
2022-12-11T15:58:43.908Z,49.40
2022-12-11T16:01:24.273Z,49.40
2022-12-11T16:04:10.911Z,49.40
2022-12-11T16:06:50.999Z,49.50
2022-12-11T16:09:40.928Z,49.40
2022-12-11T16:12:29.915Z,49.40
2022-12-11T16:15:23.429Z,49.40
2022-12-11T16:18:08.902Z,49.40
2022-12-11T16:20:51.055Z,49.40
2022-12-11T16:23:37.986Z,49.50
2022-12-11T16:26:25.141Z,49.50
2022-12-11T16:29:04.919Z,49.40
2022-12-11T16:31:51.967Z,49.60
2022-12-11T16:34:33.041Z,49.40
2022-12-11T16:37:26.919Z,49.40
2022-12-11T16:40:14.925Z,49.50
2022-12-11T16:43:02.927Z,49.40
2022-12-11T16:45:43.582Z,49.40
2022-12-11T16:48:29.936Z,50.50
2022-12-11T16:51:10.421Z,49.50
2022-12-11T16:53:56.929Z,49.50
2022-12-11T16:56:44.920Z,49.40
2022-12-11T16:59:36.855Z,49.40
2022-12-11T17:02:18.068Z,49.30
2022-12-11T17:05:04.932Z,49.30
2022-12-11T17:07:59.973Z,49.30
2022-12-11T17:10:47.989Z,49.20
2022-12-11T17:13:31.678Z,49.20
2022-12-11T17:16:16.761Z,49.20
2022-12-11T17:19:03.949Z,49.20
2022-12-11T17:21:51.833Z,49.30
2022-12-11T17:24:31.935Z,49.20
2022-12-11T17:27:18.971Z,49.20
2022-12-11T17:29:58.907Z,49.10
2022-12-11T17:32:45.918Z,49.00
2022-12-11T17:35:32.921Z,49.00
2022-12-11T17:38:19.928Z,49.00
2022-12-11T17:41:00.156Z,49.00
2022-12-11T17:43:47.932Z,48.90
2022-12-11T17:46:28.008Z,48.90
2022-12-11T17:49:15.909Z,48.90
2022-12-11T17:52:02.928Z,48.90
2022-12-11T17:54:49.915Z,48.90
2022-12-11T17:57:29.974Z,48.90
2022-12-11T18:00:17.917Z,48.80
2022-12-11T18:02:57.968Z,48.90
2022-12-11T18:05:52.955Z,48.90
2022-12-11T18:08:34.021Z,48.90
2022-12-11T18:11:25.927Z,48.90
2022-12-11T18:14:05.972Z,48.90
2022-12-11T18:16:52.914Z,48.80
2022-12-11T18:19:33.011Z,48.80
2022-12-11T18:22:19.907Z,48.80
2022-12-11T18:25:02.708Z,48.80
2022-12-11T18:27:51.914Z,48.80
2022-12-11T18:30:31.996Z,48.70
2022-12-11T18:33:19.926Z,48.70
2022-12-11T18:36:06.926Z,49.00
2022-12-11T18:38:54.915Z,48.60
2022-12-11T18:41:41.924Z,48.50
2022-12-11T18:44:22.705Z,48.50
2022-12-11T18:47:08.926Z,48.50
2022-12-11T18:49:49.512Z,48.50
2022-12-11T18:52:35.935Z,48.50
2022-12-11T18:55:23.025Z,48.40
2022-12-11T18:58:02.931Z,48.40
2022-12-11T19:00:44.090Z,48.40
2022-12-11T19:03:30.943Z,48.30
2022-12-11T19:06:19.215Z,48.30
2022-12-11T19:09:05.931Z,48.10
2022-12-11T19:11:52.918Z,48.10
2022-12-11T19:14:32.974Z,48.10
2022-12-11T19:17:19.930Z,48.10
2022-12-11T19:20:32.262Z,48.10
2022-12-11T19:23:14.041Z,48.10
2022-12-11T19:25:54.926Z,47.90
2022-12-11T19:28:41.929Z,47.90
2022-12-11T19:31:27.017Z,47.90
2022-12-11T19:34:14.042Z,47.70
2022-12-11T19:37:07.921Z,47.80
2022-12-11T19:39:54.911Z,47.70
2022-12-11T19:42:41.926Z,47.60
2022-12-11T19:45:22.590Z,47.60
2022-12-11T19:48:08.935Z,47.60
2022-12-11T19:50:49.417Z,47.50
2022-12-11T19:53:36.928Z,47.40
2022-12-11T19:56:19.262Z,47.40
2022-12-11T19:59:06.914Z,48.30
2022-12-11T20:01:50.190Z,47.30
2022-12-11T20:04:37.921Z,47.20
2022-12-11T20:07:30.496Z,48.00
2022-12-11T20:10:18.930Z,47.20
2022-12-11T20:13:05.915Z,47.10
2022-12-11T20:15:45.985Z,47.10
2022-12-11T20:18:32.916Z,47.00
2022-12-11T20:21:22.977Z,47.00
2022-12-11T20:24:09.913Z,46.90
2022-12-11T20:26:50.007Z,46.80
2022-12-11T20:29:36.917Z,46.70
2022-12-11T20:32:16.971Z,46.70
2022-12-11T20:35:04.925Z,46.70
2022-12-11T20:37:51.996Z,46.60
2022-12-11T20:40:31.947Z,46.60
2022-12-11T20:43:12.765Z,46.60
2022-12-11T20:46:02.993Z,46.60
2022-12-11T20:48:45.449Z,46.50
2022-12-11T20:51:35.936Z,46.40
2022-12-11T20:54:16.469Z,46.40
2022-12-11T20:57:03.107Z,46.40
2022-12-11T20:59:45.366Z,46.30
2022-12-11T21:02:31.975Z,46.30
2022-12-11T21:05:18.920Z,46.30
2022-12-11T21:08:01.092Z,46.30
2022-12-11T21:10:49.935Z,46.10
2022-12-11T21:13:31.103Z,46.10
2022-12-11T21:16:17.970Z,46.20
2022-12-11T21:18:58.039Z,46.10
2022-12-11T21:21:48.923Z,46.00
2022-12-11T21:24:34.091Z,45.90
2022-12-11T21:27:20.934Z,45.90
2022-12-11T21:30:01.564Z,45.80
2022-12-11T21:32:47.951Z,45.80
2022-12-11T21:35:34.927Z,44.80
2022-12-11T21:38:28.935Z,44.30
2022-12-11T21:41:28.919Z,43.90
2022-12-11T21:47:16.461Z,43.80
2022-12-11T21:50:04.290Z,43.70
2022-12-11T21:52:51.055Z,43.70
2022-12-11T21:55:30.923Z,43.60
2022-12-11T21:58:11.451Z,43.60
2022-12-11T22:00:58.991Z,43.60
2022-12-11T22:03:45.908Z,43.60
2022-12-11T22:06:32.948Z,43.50
2022-12-11T22:09:15.883Z,43.50
2022-12-11T22:12:02.935Z,43.50
2022-12-11T22:14:49.928Z,43.50
2022-12-11T22:17:32.234Z,43.40
2022-12-11T22:20:19.922Z,43.40
2022-12-11T22:22:59.971Z,43.40
2022-12-11T22:25:46.918Z,43.30
2022-12-11T22:28:26.972Z,43.30
2022-12-11T22:31:18.000Z,43.30
2022-12-11T22:33:58.999Z,43.40
2022-12-11T22:36:45.930Z,43.40
2022-12-11T22:39:26.027Z,43.40
2022-12-11T22:42:12.910Z,43.40
2022-12-11T22:44:52.992Z,43.60
2022-12-11T22:47:39.919Z,43.50
2022-12-11T22:50:21.043Z,43.50
2022-12-11T22:53:07.931Z,43.60
2022-12-11T22:55:48.034Z,43.70
2022-12-11T22:58:34.936Z,43.90
2022-12-11T23:01:22.039Z,43.80
2022-12-11T23:04:08.930Z,43.70
2022-12-11T23:06:55.915Z,44.90
2022-12-11T23:09:36.625Z,43.90
2022-12-11T23:12:22.924Z,43.90
2022-12-11T23:15:04.017Z,44.00
2022-12-11T23:17:50.936Z,44.00
2022-12-11T23:20:31.423Z,44.10
2022-12-11T23:23:17.931Z,44.00
2022-12-11T23:25:58.681Z,44.90
2022-12-11T23:28:44.936Z,44.10
2022-12-11T23:31:32.922Z,44.20
2022-12-11T23:34:19.920Z,44.20
2022-12-11T23:37:13.923Z,44.20
2022-12-11T23:40:00.924Z,44.20
2022-12-11T23:42:47.943Z,44.20
2022-12-11T23:45:35.015Z,44.20
2022-12-11T23:48:14.938Z,44.10
2022-12-11T23:51:00.607Z,44.20
2022-12-11T23:53:46.910Z,44.30
2022-12-11T23:56:35.931Z,44.30
2022-12-11T23:59:25.918Z,44.40
